sensor_id;sensor_type;location;lat;lon;timestamp;P1;durP1;ratioP1;P2;durP2;ratioP2
8663;SDS011;4369;47.842;13.096;2023-08-01T00:00:56;6.67;;;4.40;;
8663;SDS011;4369;47.842;13.096;2023-08-01T00:03:23;7.57;;;4.50;;
8663;SDS011;4369;47.842;13.096;2023-08-01T00:05:50;8.27;;;4.23;;
8663;SDS011;4369;47.842;13.096;2023-08-01T00:08:16;5.57;;;4.27;;
8663;SDS011;4369;47.842;13.096;2023-08-01T00:10:43;5.63;;;4.17;;
8663;SDS011;4369;47.842;13.096;2023-08-01T00:13:10;8.43;;;4.43;;
8663;SDS011;4369;47.842;13.096;2023-08-01T00:15:38;5.53;;;4.23;;
8663;SDS011;4369;47.842;13.096;2023-08-01T00:18:05;5.77;;;4.07;;
8663;SDS011;4369;47.842;13.096;2023-08-01T00:20:32;6.23;;;4.37;;
8663;SDS011;4369;47.842;13.096;2023-08-01T00:22:59;5.87;;;4.43;;
8663;SDS011;4369;47.842;13.096;2023-08-01T00:25:26;4.37;;;3.90;;
8663;SDS011;4369;47.842;13.096;2023-08-01T00:27:52;5.97;;;4.30;;
8663;SDS011;4369;47.842;13.096;2023-08-01T00:30:19;4.83;;;4.13;;
8663;SDS011;4369;47.842;13.096;2023-08-01T00:32:47;5.33;;;4.00;;
8663;SDS011;4369;47.842;13.096;2023-08-01T00:35:14;5.60;;;4.13;;
8663;SDS011;4369;47.842;13.096;2023-08-01T00:37:42;5.13;;;4.33;;
8663;SDS011;4369;47.842;13.096;2023-08-01T00:40:09;4.83;;;4.13;;
8663;SDS011;4369;47.842;13.096;2023-08-01T00:42:36;8.63;;;4.10;;
8663;SDS011;4369;47.842;13.096;2023-08-01T00:45:04;8.23;;;4.23;;
8663;SDS011;4369;47.842;13.096;2023-08-01T00:47:31;4.53;;;4.10;;
8663;SDS011;4369;47.842;13.096;2023-08-01T00:50:00;6.67;;;4.07;;
8663;SDS011;4369;47.842;13.096;2023-08-01T00:52:27;4.40;;;4.00;;
8663;SDS011;4369;47.842;13.096;2023-08-01T00:54:54;5.43;;;4.77;;
8663;SDS011;4369;47.842;13.096;2023-08-01T00:57:21;4.53;;;4.13;;
8663;SDS011;4369;47.842;13.096;2023-08-01T00:59:48;5.63;;;4.13;;
8663;SDS011;4369;47.842;13.096;2023-08-01T01:02:14;5.50;;;3.67;;
8663;SDS011;4369;47.842;13.096;2023-08-01T01:04:41;6.33;;;3.93;;
8663;SDS011;4369;47.842;13.096;2023-08-01T01:07:09;4.67;;;4.17;;
8663;SDS011;4369;47.842;13.096;2023-08-01T01:09:37;4.33;;;3.93;;
8663;SDS011;4369;47.842;13.096;2023-08-01T01:12:04;6.03;;;4.00;;
8663;SDS011;4369;47.842;13.096;2023-08-01T01:14:32;5.27;;;4.23;;
8663;SDS011;4369;47.842;13.096;2023-08-01T01:16:59;4.30;;;3.67;;
8663;SDS011;4369;47.842;13.096;2023-08-01T01:19:25;5.30;;;4.37;;
8663;SDS011;4369;47.842;13.096;2023-08-01T01:24:45;8.17;;;4.40;;
8663;SDS011;4369;47.842;13.096;2023-08-01T01:27:14;6.73;;;4.13;;
8663;SDS011;4369;47.842;13.096;2023-08-01T01:29:43;4.67;;;3.87;;
8663;SDS011;4369;47.842;13.096;2023-08-01T01:32:10;4.37;;;3.93;;
8663;SDS011;4369;47.842;13.096;2023-08-01T01:34:39;4.57;;;3.93;;
8663;SDS011;4369;47.842;13.096;2023-08-01T01:37:05;4.23;;;3.83;;
8663;SDS011;4369;47.842;13.096;2023-08-01T01:39:34;4.20;;;3.80;;
8663;SDS011;4369;47.842;13.096;2023-08-01T01:42:01;4.63;;;3.83;;
8663;SDS011;4369;47.842;13.096;2023-08-01T01:44:27;4.37;;;3.77;;
8663;SDS011;4369;47.842;13.096;2023-08-01T01:46:54;4.20;;;3.80;;
8663;SDS011;4369;47.842;13.096;2023-08-01T01:49:21;3.80;;;3.50;;
8663;SDS011;4369;47.842;13.096;2023-08-01T01:51:50;4.93;;;3.73;;
8663;SDS011;4369;47.842;13.096;2023-08-01T01:54:16;5.70;;;4.10;;
8663;SDS011;4369;47.842;13.096;2023-08-01T01:56:45;5.17;;;4.40;;
8663;SDS011;4369;47.842;13.096;2023-08-01T01:59:11;8.47;;;4.60;;
8663;SDS011;4369;47.842;13.096;2023-08-01T02:01:38;6.20;;;4.07;;
8663;SDS011;4369;47.842;13.096;2023-08-01T02:04:05;5.70;;;4.23;;
8663;SDS011;4369;47.842;13.096;2023-08-01T02:06:32;6.27;;;4.70;;
8663;SDS011;4369;47.842;13.096;2023-08-01T02:08:59;5.73;;;4.00;;
8663;SDS011;4369;47.842;13.096;2023-08-01T02:11:26;5.40;;;4.40;;
8663;SDS011;4369;47.842;13.096;2023-08-01T02:13:54;4.43;;;3.90;;
8663;SDS011;4369;47.842;13.096;2023-08-01T02:16:21;3.97;;;3.60;;
8663;SDS011;4369;47.842;13.096;2023-08-01T02:18:48;4.40;;;3.80;;
8663;SDS011;4369;47.842;13.096;2023-08-01T02:21:15;4.33;;;3.93;;
8663;SDS011;4369;47.842;13.096;2023-08-01T02:23:42;7.73;;;3.93;;
8663;SDS011;4369;47.842;13.096;2023-08-01T02:26:09;4.77;;;4.27;;
8663;SDS011;4369;47.842;13.096;2023-08-01T02:28:35;5.47;;;4.00;;
8663;SDS011;4369;47.842;13.096;2023-08-01T02:31:03;4.53;;;4.10;;
8663;SDS011;4369;47.842;13.096;2023-08-01T02:33:30;6.57;;;4.20;;
8663;SDS011;4369;47.842;13.096;2023-08-01T02:35:57;4.30;;;3.80;;
8663;SDS011;4369;47.842;13.096;2023-08-01T02:38:24;5.40;;;4.30;;
8663;SDS011;4369;47.842;13.096;2023-08-01T02:40:51;6.77;;;4.20;;
8663;SDS011;4369;47.842;13.096;2023-08-01T02:43:18;5.00;;;3.83;;
8663;SDS011;4369;47.842;13.096;2023-08-01T02:45:45;5.13;;;3.87;;
8663;SDS011;4369;47.842;13.096;2023-08-01T02:48:13;4.20;;;3.20;;
8663;SDS011;4369;47.842;13.096;2023-08-01T02:50:40;6.17;;;3.87;;
8663;SDS011;4369;47.842;13.096;2023-08-01T02:53:07;3.93;;;3.53;;
8663;SDS011;4369;47.842;13.096;2023-08-01T02:55:33;3.97;;;3.57;;
8663;SDS011;4369;47.842;13.096;2023-08-01T02:58:00;3.63;;;3.10;;
8663;SDS011;4369;47.842;13.096;2023-08-01T03:00:27;5.50;;;3.77;;
8663;SDS011;4369;47.842;13.096;2023-08-01T03:02:54;3.90;;;3.57;;
8663;SDS011;4369;47.842;13.096;2023-08-01T03:05:23;5.00;;;3.37;;
8663;SDS011;4369;47.842;13.096;2023-08-01T03:07:50;4.03;;;3.60;;
8663;SDS011;4369;47.842;13.096;2023-08-01T03:10:17;8.47;;;3.90;;
8663;SDS011;4369;47.842;13.096;2023-08-01T03:12:43;3.87;;;3.50;;
8663;SDS011;4369;47.842;13.096;2023-08-01T03:15:10;4.83;;;3.47;;
8663;SDS011;4369;47.842;13.096;2023-08-01T03:17:37;4.53;;;3.83;;
8663;SDS011;4369;47.842;13.096;2023-08-01T03:20:04;4.47;;;4.07;;
8663;SDS011;4369;47.842;13.096;2023-08-01T03:22:37;6.93;;;4.07;;
8663;SDS011;4369;47.842;13.096;2023-08-01T03:25:04;6.23;;;4.63;;
8663;SDS011;4369;47.842;13.096;2023-08-01T03:37:55;5.67;;;4.30;;
8663;SDS011;4369;47.842;13.096;2023-08-01T03:40:23;5.43;;;3.97;;
8663;SDS011;4369;47.842;13.096;2023-08-01T03:42:50;5.03;;;3.37;;
8663;SDS011;4369;47.842;13.096;2023-08-01T03:45:17;8.70;;;4.23;;
8663;SDS011;4369;47.842;13.096;2023-08-01T03:47:44;4.93;;;3.40;;
8663;SDS011;4369;47.842;13.096;2023-08-01T03:50:11;4.23;;;3.83;;
8663;SDS011;4369;47.842;13.096;2023-08-01T03:52:39;4.33;;;3.60;;
8663;SDS011;4369;47.842;13.096;2023-08-01T03:55:07;4.30;;;3.70;;
8663;SDS011;4369;47.842;13.096;2023-08-01T03:57:35;4.87;;;3.83;;
8663;SDS011;4369;47.842;13.096;2023-08-01T04:00:04;4.50;;;3.90;;
8663;SDS011;4369;47.842;13.096;2023-08-01T04:05:03;3.90;;;3.33;;
8663;SDS011;4369;47.842;13.096;2023-08-01T04:07:31;4.70;;;3.83;;
8663;SDS011;4369;47.842;13.096;2023-08-01T04:10:00;3.93;;;3.50;;
8663;SDS011;4369;47.842;13.096;2023-08-01T04:12:29;4.03;;;3.23;;
8663;SDS011;4369;47.842;13.096;2023-08-01T04:14:56;4.63;;;3.60;;
8663;SDS011;4369;47.842;13.096;2023-08-01T04:17:23;4.37;;;3.60;;
8663;SDS011;4369;47.842;13.096;2023-08-01T04:19:50;5.53;;;3.47;;
8663;SDS011;4369;47.842;13.096;2023-08-01T04:22:17;5.57;;;3.90;;
8663;SDS011;4369;47.842;13.096;2023-08-01T04:24:44;6.17;;;4.10;;
8663;SDS011;4369;47.842;13.096;2023-08-01T04:27:16;4.80;;;4.13;;
8663;SDS011;4369;47.842;13.096;2023-08-01T04:29:44;9.33;;;4.73;;
8663;SDS011;4369;47.842;13.096;2023-08-01T04:32:11;6.40;;;4.40;;
8663;SDS011;4369;47.842;13.096;2023-08-01T04:37:12;5.17;;;4.60;;
8663;SDS011;4369;47.842;13.096;2023-08-01T04:39:39;4.70;;;4.20;;
8663;SDS011;4369;47.842;13.096;2023-08-01T04:42:06;4.80;;;4.03;;
8663;SDS011;4369;47.842;13.096;2023-08-01T04:44:33;6.20;;;4.40;;
8663;SDS011;4369;47.842;13.096;2023-08-01T04:47:01;5.53;;;4.20;;
8663;SDS011;4369;47.842;13.096;2023-08-01T04:49:28;5.70;;;4.50;;
8663;SDS011;4369;47.842;13.096;2023-08-01T04:51:55;5.63;;;4.60;;
8663;SDS011;4369;47.842;13.096;2023-08-01T04:54:22;6.77;;;4.80;;
8663;SDS011;4369;47.842;13.096;2023-08-01T04:59:14;5.67;;;3.93;;
8663;SDS011;4369;47.842;13.096;2023-08-01T05:01:41;5.67;;;4.57;;
8663;SDS011;4369;47.842;13.096;2023-08-01T05:06:45;6.47;;;4.50;;
8663;SDS011;4369;47.842;13.096;2023-08-01T05:09:13;8.70;;;4.90;;
8663;SDS011;4369;47.842;13.096;2023-08-01T05:11:40;6.03;;;4.63;;
8663;SDS011;4369;47.842;13.096;2023-08-01T05:14:07;6.07;;;4.23;;
8663;SDS011;4369;47.842;13.096;2023-08-01T05:16:33;7.07;;;4.83;;
8663;SDS011;4369;47.842;13.096;2023-08-01T05:19:00;4.20;;;3.80;;
8663;SDS011;4369;47.842;13.096;2023-08-01T05:21:27;5.70;;;4.17;;
8663;SDS011;4369;47.842;13.096;2023-08-01T05:23:58;5.40;;;4.17;;
8663;SDS011;4369;47.842;13.096;2023-08-01T05:26:24;8.67;;;4.50;;
8663;SDS011;4369;47.842;13.096;2023-08-01T05:28:51;5.73;;;3.87;;
8663;SDS011;4369;47.842;13.096;2023-08-01T05:31:18;5.60;;;4.33;;
8663;SDS011;4369;47.842;13.096;2023-08-01T05:34:02;5.00;;;4.27;;
8663;SDS011;4369;47.842;13.096;2023-08-01T05:36:28;5.00;;;4.10;;
8663;SDS011;4369;47.842;13.096;2023-08-01T05:38:55;6.77;;;4.40;;
8663;SDS011;4369;47.842;13.096;2023-08-01T05:41:24;5.30;;;4.40;;
8663;SDS011;4369;47.842;13.096;2023-08-01T05:43:51;6.97;;;5.37;;
8663;SDS011;4369;47.842;13.096;2023-08-01T05:46:18;7.37;;;4.60;;
8663;SDS011;4369;47.842;13.096;2023-08-01T05:48:45;6.70;;;5.13;;
8663;SDS011;4369;47.842;13.096;2023-08-01T05:51:12;4.73;;;3.90;;
8663;SDS011;4369;47.842;13.096;2023-08-01T05:53:39;5.47;;;4.53;;
8663;SDS011;4369;47.842;13.096;2023-08-01T05:56:07;6.37;;;4.80;;
8663;SDS011;4369;47.842;13.096;2023-08-01T05:58:34;5.33;;;4.80;;
8663;SDS011;4369;47.842;13.096;2023-08-01T06:01:01;5.60;;;4.40;;
8663;SDS011;4369;47.842;13.096;2023-08-01T06:03:29;4.87;;;4.40;;
8663;SDS011;4369;47.842;13.096;2023-08-01T06:05:55;6.33;;;4.57;;
8663;SDS011;4369;47.842;13.096;2023-08-01T06:08:22;7.23;;;4.90;;
8663;SDS011;4369;47.842;13.096;2023-08-01T06:10:49;9.03;;;5.27;;
8663;SDS011;4369;47.842;13.096;2023-08-01T06:13:17;6.90;;;4.70;;
8663;SDS011;4369;47.842;13.096;2023-08-01T06:15:44;5.10;;;4.40;;
8663;SDS011;4369;47.842;13.096;2023-08-01T06:18:11;6.37;;;4.93;;
8663;SDS011;4369;47.842;13.096;2023-08-01T06:20:38;7.17;;;4.83;;
8663;SDS011;4369;47.842;13.096;2023-08-01T06:23:05;7.40;;;5.37;;
8663;SDS011;4369;47.842;13.096;2023-08-01T06:25:32;5.57;;;4.73;;
8663;SDS011;4369;47.842;13.096;2023-08-01T06:27:59;6.73;;;4.80;;
8663;SDS011;4369;47.842;13.096;2023-08-01T06:30:27;7.33;;;5.10;;
8663;SDS011;4369;47.842;13.096;2023-08-01T06:32:54;6.63;;;5.23;;
8663;SDS011;4369;47.842;13.096;2023-08-01T06:35:21;5.17;;;4.50;;
8663;SDS011;4369;47.842;13.096;2023-08-01T06:37:47;5.30;;;4.10;;
8663;SDS011;4369;47.842;13.096;2023-08-01T06:40:14;5.70;;;4.60;;
8663;SDS011;4369;47.842;13.096;2023-08-01T06:42:41;5.83;;;4.43;;
8663;SDS011;4369;47.842;13.096;2023-08-01T06:45:08;5.13;;;4.63;;
8663;SDS011;4369;47.842;13.096;2023-08-01T06:47:37;6.77;;;4.73;;
8663;SDS011;4369;47.842;13.096;2023-08-01T06:50:04;5.10;;;4.60;;
8663;SDS011;4369;47.842;13.096;2023-08-01T06:52:32;7.73;;;5.20;;
8663;SDS011;4369;47.842;13.096;2023-08-01T06:54:58;5.87;;;4.60;;
8663;SDS011;4369;47.842;13.096;2023-08-01T06:57:25;5.03;;;4.20;;
8663;SDS011;4369;47.842;13.096;2023-08-01T06:59:52;6.63;;;4.60;;
8663;SDS011;4369;47.842;13.096;2023-08-01T07:02:19;4.73;;;4.30;;
8663;SDS011;4369;47.842;13.096;2023-08-01T07:04:47;6.37;;;4.77;;
8663;SDS011;4369;47.842;13.096;2023-08-01T07:07:14;6.43;;;5.17;;
8663;SDS011;4369;47.842;13.096;2023-08-01T07:09:41;5.90;;;4.83;;
8663;SDS011;4369;47.842;13.096;2023-08-01T07:12:08;7.33;;;4.80;;
8663;SDS011;4369;47.842;13.096;2023-08-01T07:14:35;7.30;;;4.90;;
8663;SDS011;4369;47.842;13.096;2023-08-01T07:17:02;5.87;;;4.87;;
8663;SDS011;4369;47.842;13.096;2023-08-01T07:19:29;5.37;;;4.73;;
8663;SDS011;4369;47.842;13.096;2023-08-01T07:21:57;8.30;;;5.20;;
8663;SDS011;4369;47.842;13.096;2023-08-01T07:24:24;6.10;;;4.90;;
8663;SDS011;4369;47.842;13.096;2023-08-01T07:26:50;5.93;;;5.17;;
8663;SDS011;4369;47.842;13.096;2023-08-01T07:29:17;7.83;;;5.27;;
8663;SDS011;4369;47.842;13.096;2023-08-01T07:31:44;6.77;;;4.93;;
8663;SDS011;4369;47.842;13.096;2023-08-01T07:34:11;6.40;;;5.30;;
8663;SDS011;4369;47.842;13.096;2023-08-01T07:36:38;5.63;;;4.90;;
8663;SDS011;4369;47.842;13.096;2023-08-01T07:39:06;5.50;;;4.63;;
8663;SDS011;4369;47.842;13.096;2023-08-01T07:41:33;4.73;;;4.23;;
8663;SDS011;4369;47.842;13.096;2023-08-01T07:44:00;4.73;;;4.20;;
8663;SDS011;4369;47.842;13.096;2023-08-01T07:46:28;5.40;;;4.23;;
8663;SDS011;4369;47.842;13.096;2023-08-01T07:48:55;4.30;;;3.90;;
8663;SDS011;4369;47.842;13.096;2023-08-01T07:51:22;5.17;;;3.80;;
8663;SDS011;4369;47.842;13.096;2023-08-01T07:56:18;4.97;;;4.33;;
8663;SDS011;4369;47.842;13.096;2023-08-01T07:58:45;4.93;;;4.43;;
8663;SDS011;4369;47.842;13.096;2023-08-01T08:01:12;5.10;;;4.33;;
8663;SDS011;4369;47.842;13.096;2023-08-01T08:03:39;4.67;;;3.97;;
8663;SDS011;4369;47.842;13.096;2023-08-01T08:06:06;6.07;;;4.20;;
8663;SDS011;4369;47.842;13.096;2023-08-01T08:08:33;4.47;;;4.07;;
8663;SDS011;4369;47.842;13.096;2023-08-01T08:11:01;6.07;;;4.50;;
8663;SDS011;4369;47.842;13.096;2023-08-01T08:13:30;7.23;;;5.00;;
8663;SDS011;4369;47.842;13.096;2023-08-01T08:15:57;6.53;;;5.07;;
8663;SDS011;4369;47.842;13.096;2023-08-01T08:18:24;5.53;;;4.70;;
8663;SDS011;4369;47.842;13.096;2023-08-01T08:20:51;6.33;;;4.57;;
8663;SDS011;4369;47.842;13.096;2023-08-01T08:23:18;7.03;;;5.20;;
8663;SDS011;4369;47.842;13.096;2023-08-01T08:25:45;6.20;;;4.73;;
8663;SDS011;4369;47.842;13.096;2023-08-01T08:28:12;5.43;;;4.43;;
8663;SDS011;4369;47.842;13.096;2023-08-01T08:30:41;5.13;;;4.53;;
8663;SDS011;4369;47.842;13.096;2023-08-01T08:33:08;5.67;;;4.50;;
8663;SDS011;4369;47.842;13.096;2023-08-01T08:35:35;5.40;;;4.43;;
8663;SDS011;4369;47.842;13.096;2023-08-01T08:38:03;5.60;;;4.63;;
8663;SDS011;4369;47.842;13.096;2023-08-01T08:40:31;5.13;;;4.03;;
8663;SDS011;4369;47.842;13.096;2023-08-01T08:42:58;6.47;;;4.83;;
8663;SDS011;4369;47.842;13.096;2023-08-01T08:45:28;6.30;;;4.93;;
8663;SDS011;4369;47.842;13.096;2023-08-01T08:48:01;5.90;;;4.20;;
8663;SDS011;4369;47.842;13.096;2023-08-01T08:50:31;8.37;;;5.00;;
8663;SDS011;4369;47.842;13.096;2023-08-01T08:53:01;6.73;;;5.13;;
8663;SDS011;4369;47.842;13.096;2023-08-01T08:55:28;6.07;;;5.23;;
8663;SDS011;4369;47.842;13.096;2023-08-01T08:57:56;7.80;;;5.20;;
8663;SDS011;4369;47.842;13.096;2023-08-01T09:00:25;6.70;;;5.00;;
8663;SDS011;4369;47.842;13.096;2023-08-01T09:02:53;5.10;;;4.60;;
8663;SDS011;4369;47.842;13.096;2023-08-01T09:05:21;5.60;;;4.40;;
8663;SDS011;4369;47.842;13.096;2023-08-01T09:07:55;7.00;;;4.90;;
8663;SDS011;4369;47.842;13.096;2023-08-01T09:10:23;6.47;;;4.50;;
8663;SDS011;4369;47.842;13.096;2023-08-01T09:12:50;6.40;;;4.10;;
8663;SDS011;4369;47.842;13.096;2023-08-01T09:15:17;5.13;;;4.20;;
8663;SDS011;4369;47.842;13.096;2023-08-01T09:17:48;7.03;;;4.30;;
8663;SDS011;4369;47.842;13.096;2023-08-01T09:20:16;5.20;;;4.67;;
8663;SDS011;4369;47.842;13.096;2023-08-01T09:22:44;4.60;;;4.00;;
8663;SDS011;4369;47.842;13.096;2023-08-01T09:25:12;5.90;;;4.60;;
8663;SDS011;4369;47.842;13.096;2023-08-01T09:27:40;7.97;;;4.20;;
8663;SDS011;4369;47.842;13.096;2023-08-01T09:30:07;4.90;;;4.33;;
8663;SDS011;4369;47.842;13.096;2023-08-01T09:32:36;5.83;;;4.43;;
8663;SDS011;4369;47.842;13.096;2023-08-01T09:35:03;4.33;;;3.93;;
8663;SDS011;4369;47.842;13.096;2023-08-01T09:37:38;5.00;;;4.50;;
8663;SDS011;4369;47.842;13.096;2023-08-01T09:40:08;7.03;;;4.50;;
8663;SDS011;4369;47.842;13.096;2023-08-01T09:42:38;4.60;;;4.07;;
8663;SDS011;4369;47.842;13.096;2023-08-01T09:45:07;4.60;;;3.80;;
8663;SDS011;4369;47.842;13.096;2023-08-01T09:47:39;6.27;;;4.13;;
8663;SDS011;4369;47.842;13.096;2023-08-01T09:50:06;5.13;;;4.37;;
8663;SDS011;4369;47.842;13.096;2023-08-01T09:52:35;5.70;;;4.23;;
8663;SDS011;4369;47.842;13.096;2023-08-01T09:55:02;5.60;;;4.30;;
8663;SDS011;4369;47.842;13.096;2023-08-01T09:57:31;6.53;;;4.37;;
8663;SDS011;4369;47.842;13.096;2023-08-01T09:59:58;7.73;;;4.30;;
8663;SDS011;4369;47.842;13.096;2023-08-01T10:02:26;5.90;;;4.30;;
8663;SDS011;4369;47.842;13.096;2023-08-01T10:04:54;6.60;;;4.10;;
8663;SDS011;4369;47.842;13.096;2023-08-01T10:07:24;5.20;;;4.00;;
8663;SDS011;4369;47.842;13.096;2023-08-01T10:09:57;5.07;;;4.27;;
8663;SDS011;4369;47.842;13.096;2023-08-01T10:12:25;3.40;;;3.10;;
8663;SDS011;4369;47.842;13.096;2023-08-01T10:14:54;4.53;;;3.70;;
8663;SDS011;4369;47.842;13.096;2023-08-01T10:17:22;4.30;;;3.90;;
8663;SDS011;4369;47.842;13.096;2023-08-01T10:19:51;4.87;;;4.00;;
8663;SDS011;4369;47.842;13.096;2023-08-01T10:22:22;4.47;;;3.90;;
8663;SDS011;4369;47.842;13.096;2023-08-01T10:24:50;3.77;;;3.40;;
8663;SDS011;4369;47.842;13.096;2023-08-01T10:27:19;6.77;;;4.17;;
8663;SDS011;4369;47.842;13.096;2023-08-01T10:29:57;5.33;;;3.73;;
8663;SDS011;4369;47.842;13.096;2023-08-01T10:32:28;5.67;;;4.10;;
8663;SDS011;4369;47.842;13.096;2023-08-01T10:34:57;7.07;;;4.10;;
8663;SDS011;4369;47.842;13.096;2023-08-01T10:37:25;4.57;;;3.83;;
8663;SDS011;4369;47.842;13.096;2023-08-01T10:39:58;4.53;;;3.93;;
8663;SDS011;4369;47.842;13.096;2023-08-01T10:42:36;4.93;;;3.97;;
8663;SDS011;4369;47.842;13.096;2023-08-01T10:45:05;6.00;;;4.57;;
8663;SDS011;4369;47.842;13.096;2023-08-01T10:47:33;7.00;;;4.70;;
8663;SDS011;4369;47.842;13.096;2023-08-01T10:50:00;5.43;;;4.60;;
8663;SDS011;4369;47.842;13.096;2023-08-01T10:52:28;4.83;;;4.37;;
8663;SDS011;4369;47.842;13.096;2023-08-01T10:54:58;8.40;;;4.60;;
8663;SDS011;4369;47.842;13.096;2023-08-01T10:57:26;5.20;;;4.33;;
8663;SDS011;4369;47.842;13.096;2023-08-01T10:59:54;5.17;;;4.03;;
8663;SDS011;4369;47.842;13.096;2023-08-01T11:02:24;5.83;;;4.40;;
8663;SDS011;4369;47.842;13.096;2023-08-01T11:04:56;4.77;;;4.20;;
8663;SDS011;4369;47.842;13.096;2023-08-01T11:07:23;5.23;;;4.20;;
8663;SDS011;4369;47.842;13.096;2023-08-01T11:10:01;5.10;;;4.60;;
8663;SDS011;4369;47.842;13.096;2023-08-01T11:12:30;7.13;;;4.50;;
8663;SDS011;4369;47.842;13.096;2023-08-01T11:14:58;4.73;;;4.10;;
8663;SDS011;4369;47.842;13.096;2023-08-01T11:17:27;6.00;;;4.40;;
8663;SDS011;4369;47.842;13.096;2023-08-01T11:20:00;6.27;;;4.33;;
8663;SDS011;4369;47.842;13.096;2023-08-01T11:22:29;5.17;;;4.37;;
8663;SDS011;4369;47.842;13.096;2023-08-01T11:24:56;5.93;;;4.57;;
8663;SDS011;4369;47.842;13.096;2023-08-01T11:27:23;7.70;;;4.80;;
8663;SDS011;4369;47.842;13.096;2023-08-01T11:29:50;4.90;;;4.40;;
8663;SDS011;4369;47.842;13.096;2023-08-01T11:32:17;5.87;;;4.67;;
8663;SDS011;4369;47.842;13.096;2023-08-01T11:34:47;5.33;;;4.37;;
8663;SDS011;4369;47.842;13.096;2023-08-01T11:37:17;5.37;;;4.83;;
8663;SDS011;4369;47.842;13.096;2023-08-01T11:39:45;4.60;;;4.20;;
8663;SDS011;4369;47.842;13.096;2023-08-01T11:42:14;5.33;;;4.23;;
8663;SDS011;4369;47.842;13.096;2023-08-01T11:44:42;4.50;;;4.00;;
8663;SDS011;4369;47.842;13.096;2023-08-01T11:47:12;4.60;;;4.20;;
8663;SDS011;4369;47.842;13.096;2023-08-01T11:49:44;4.93;;;4.37;;
8663;SDS011;4369;47.842;13.096;2023-08-01T11:52:23;6.30;;;4.87;;
8663;SDS011;4369;47.842;13.096;2023-08-01T11:54:50;7.37;;;5.20;;
8663;SDS011;4369;47.842;13.096;2023-08-01T11:57:17;5.90;;;4.40;;
8663;SDS011;4369;47.842;13.096;2023-08-01T11:59:47;6.13;;;4.73;;
8663;SDS011;4369;47.842;13.096;2023-08-01T12:02:22;5.57;;;4.83;;
8663;SDS011;4369;47.842;13.096;2023-08-01T12:04:51;6.00;;;4.87;;
8663;SDS011;4369;47.842;13.096;2023-08-01T12:07:19;5.83;;;4.80;;
8663;SDS011;4369;47.842;13.096;2023-08-01T12:09:54;4.83;;;4.33;;
8663;SDS011;4369;47.842;13.096;2023-08-01T12:12:22;5.73;;;4.87;;
8663;SDS011;4369;47.842;13.096;2023-08-01T12:14:48;8.20;;;5.10;;
8663;SDS011;4369;47.842;13.096;2023-08-01T12:17:15;5.17;;;4.40;;
8663;SDS011;4369;47.842;13.096;2023-08-01T12:19:42;6.00;;;4.70;;
8663;SDS011;4369;47.842;13.096;2023-08-01T12:22:10;7.33;;;4.97;;
8663;SDS011;4369;47.842;13.096;2023-08-01T12:24:37;4.70;;;4.20;;
8663;SDS011;4369;47.842;13.096;2023-08-01T12:27:05;5.40;;;4.53;;
8663;SDS011;4369;47.842;13.096;2023-08-01T12:29:32;5.10;;;4.40;;
8663;SDS011;4369;47.842;13.096;2023-08-01T12:31:59;5.33;;;4.10;;
8663;SDS011;4369;47.842;13.096;2023-08-01T12:34:26;5.53;;;4.13;;
8663;SDS011;4369;47.842;13.096;2023-08-01T12:36:53;6.20;;;4.47;;
8663;SDS011;4369;47.842;13.096;2023-08-01T12:39:21;6.67;;;4.73;;
8663;SDS011;4369;47.842;13.096;2023-08-01T12:41:51;4.83;;;3.80;;
8663;SDS011;4369;47.842;13.096;2023-08-01T12:44:17;4.87;;;4.07;;
8663;SDS011;4369;47.842;13.096;2023-08-01T12:46:44;5.70;;;5.13;;
8663;SDS011;4369;47.842;13.096;2023-08-01T12:49:11;4.90;;;4.40;;
8663;SDS011;4369;47.842;13.096;2023-08-01T12:54:19;7.13;;;5.00;;
8663;SDS011;4369;47.842;13.096;2023-08-01T12:56:47;8.37;;;5.10;;
8663;SDS011;4369;47.842;13.096;2023-08-01T12:59:14;5.43;;;4.80;;
8663;SDS011;4369;47.842;13.096;2023-08-01T13:01:41;7.13;;;4.93;;
8663;SDS011;4369;47.842;13.096;2023-08-01T13:04:08;6.43;;;4.93;;
8663;SDS011;4369;47.842;13.096;2023-08-01T13:06:35;5.97;;;5.33;;
8663;SDS011;4369;47.842;13.096;2023-08-01T13:09:18;4.93;;;4.27;;
8663;SDS011;4369;47.842;13.096;2023-08-01T13:11:45;7.90;;;5.27;;
8663;SDS011;4369;47.842;13.096;2023-08-01T13:14:13;6.73;;;4.90;;
8663;SDS011;4369;47.842;13.096;2023-08-01T13:16:40;6.67;;;5.03;;
8663;SDS011;4369;47.842;13.096;2023-08-01T13:19:07;5.13;;;4.53;;
8663;SDS011;4369;47.842;13.096;2023-08-01T13:21:36;6.95;;;5.38;;
8663;SDS011;4369;47.842;13.096;2023-08-01T13:24:03;7.43;;;5.13;;
8663;SDS011;4369;47.842;13.096;2023-08-01T13:26:31;7.67;;;4.73;;
8663;SDS011;4369;47.842;13.096;2023-08-01T13:28:58;7.20;;;4.57;;
8663;SDS011;4369;47.842;13.096;2023-08-01T13:31:26;5.87;;;4.53;;
8663;SDS011;4369;47.842;13.096;2023-08-01T13:33:54;8.90;;;5.33;;
8663;SDS011;4369;47.842;13.096;2023-08-01T13:36:21;5.20;;;4.47;;
8663;SDS011;4369;47.842;13.096;2023-08-01T13:38:47;7.47;;;5.13;;
8663;SDS011;4369;47.842;13.096;2023-08-01T13:41:14;6.27;;;4.70;;
8663;SDS011;4369;47.842;13.096;2023-08-01T13:43:41;6.63;;;5.07;;
8663;SDS011;4369;47.842;13.096;2023-08-01T13:46:11;6.10;;;5.30;;
8663;SDS011;4369;47.842;13.096;2023-08-01T13:48:41;6.70;;;3.90;;
8663;SDS011;4369;47.842;13.096;2023-08-01T13:51:08;6.03;;;4.40;;
8663;SDS011;4369;47.842;13.096;2023-08-01T13:53:36;4.50;;;4.10;;
8663;SDS011;4369;47.842;13.096;2023-08-01T13:56:05;5.07;;;4.57;;
8663;SDS011;4369;47.842;13.096;2023-08-01T13:58:32;5.10;;;3.97;;
8663;SDS011;4369;47.842;13.096;2023-08-01T14:01:03;8.13;;;4.50;;
8663;SDS011;4369;47.842;13.096;2023-08-01T14:03:32;5.23;;;4.57;;
8663;SDS011;4369;47.842;13.096;2023-08-01T14:06:04;5.17;;;4.17;;
8663;SDS011;4369;47.842;13.096;2023-08-01T14:08:31;6.17;;;4.83;;
8663;SDS011;4369;47.842;13.096;2023-08-01T14:10:58;6.83;;;4.70;;
8663;SDS011;4369;47.842;13.096;2023-08-01T14:13:25;6.17;;;5.00;;
8663;SDS011;4369;47.842;13.096;2023-08-01T14:15:52;7.53;;;5.27;;
8663;SDS011;4369;47.842;13.096;2023-08-01T14:18:19;6.13;;;4.57;;
8663;SDS011;4369;47.842;13.096;2023-08-01T14:20:46;6.03;;;4.83;;
8663;SDS011;4369;47.842;13.096;2023-08-01T14:23:14;6.10;;;4.60;;
8663;SDS011;4369;47.842;13.096;2023-08-01T14:25:41;6.37;;;4.80;;
8663;SDS011;4369;47.842;13.096;2023-08-01T14:28:08;6.43;;;4.60;;
8663;SDS011;4369;47.842;13.096;2023-08-01T14:30:36;5.73;;;4.07;;
8663;SDS011;4369;47.842;13.096;2023-08-01T14:33:04;4.80;;;4.07;;
8663;SDS011;4369;47.842;13.096;2023-08-01T14:35:33;4.73;;;4.23;;
8663;SDS011;4369;47.842;13.096;2023-08-01T14:38:00;5.00;;;4.10;;
8663;SDS011;4369;47.842;13.096;2023-08-01T14:40:42;4.57;;;3.80;;
8663;SDS011;4369;47.842;13.096;2023-08-01T14:43:09;4.13;;;3.73;;
8663;SDS011;4369;47.842;13.096;2023-08-01T14:45:37;7.07;;;5.17;;
8663;SDS011;4369;47.842;13.096;2023-08-01T14:48:05;7.10;;;4.17;;
8663;SDS011;4369;47.842;13.096;2023-08-01T14:50:32;3.93;;;3.37;;
8663;SDS011;4369;47.842;13.096;2023-08-01T14:52:59;4.83;;;3.93;;
8663;SDS011;4369;47.842;13.096;2023-08-01T14:55:26;4.93;;;3.80;;
8663;SDS011;4369;47.842;13.096;2023-08-01T14:57:54;3.93;;;3.53;;
8663;SDS011;4369;47.842;13.096;2023-08-01T15:00:21;3.80;;;3.50;;
8663;SDS011;4369;47.842;13.096;2023-08-01T15:02:48;4.10;;;3.60;;
8663;SDS011;4369;47.842;13.096;2023-08-01T15:05:15;4.37;;;3.50;;
8663;SDS011;4369;47.842;13.096;2023-08-01T15:07:42;3.57;;;3.27;;
8663;SDS011;4369;47.842;13.096;2023-08-01T15:10:09;4.63;;;3.40;;
8663;SDS011;4369;47.842;13.096;2023-08-01T15:12:36;3.93;;;3.30;;
8663;SDS011;4369;47.842;13.096;2023-08-01T15:15:05;3.17;;;2.87;;
8663;SDS011;4369;47.842;13.096;2023-08-01T15:17:33;4.87;;;4.23;;
8663;SDS011;4369;47.842;13.096;2023-08-01T15:20:00;4.33;;;3.67;;
8663;SDS011;4369;47.842;13.096;2023-08-01T15:22:28;3.87;;;3.43;;
8663;SDS011;4369;47.842;13.096;2023-08-01T15:24:55;4.55;;;3.60;;
8663;SDS011;4369;47.842;13.096;2023-08-01T15:27:21;3.43;;;3.13;;
8663;SDS011;4369;47.842;13.096;2023-08-01T15:29:48;4.10;;;3.70;;
8663;SDS011;4369;47.842;13.096;2023-08-01T15:32:20;3.90;;;2.97;;